Terminal Aerodrome Forecast
Issued by NWS Charleston, WV

Current Version | Previous Version | Text Only | Print | Product List | Glossary Off
Versions: 1 2 3 4 5 6 7 8 9 10 11 12 13 14 15 16 17 18 19 20 21 22

626
FTUS41 KRLX 022332
TAFHTS
TAF
KHTS 022332Z 0300/0324 16012G24KT P6SM OVC130
     FM030800 17014G24KT 3SM SHRA VCTS OVC040CB
     FM031000 17013G24KT 3SM SHRA VCTS OVC025CB
     FM031100 17013G22KT 4SM -SHRA OVC016
     FM031500 21009KT P6SM BKN030=

USA.gov is the U.S. government's official web portal to all federal, state and local government web resources and services.